Terenos, Brazil
Current Conditions -  °F | °C
As of 12:02 PM on Saturday 20 Dec 2014 (Local Time) from SBCG Reporting Station
Thunderstorm Thunderstorm  
Wind Chill: 72°   Ceiling: Unl
Heat Index: 72°   Visibility: 5mi
Dew Point: 68°   Wind: 10mph
Humidity: 88%   Direction: 340°NNW
Pressure: 29.83"   Gusts: NA
Location:  20.44°S, 54.88°W
Report Text: SBCG 201502Z 34009KT 8000 TS VCSH SCT023 FEW035CB SCT100 22/20 Q1010
Loading
Personal Weather Stations






























Interactive Weather Map New forecast layout! Learn more

10-Day Weather Forecast

Advertisements
Track Severe Weather on mobile